Time;durP1;ratioP1;P1;durP2;ratioP2;P2;SDS_P1;SDS_P2;PMS_P1;PMS_P2;Temp;Humidity;BMP_temperature;BMP_pressure;BME280_temperature;BME280_humidity;BME280_pressure;Samples;Min_cycle;Max_cycle;Signal;HPM_P1;HPM_P2
2023/07/09 00:01:18;;;;;;;10.93;9.33;;;;;;;18.89;63.65;93268.38;5051817;28;20232;-72
2023/07/09 00:03:51;;;;;;;10.03;9.43;;;;;;;18.79;62.43;93256.25;5069751;28;20421;-72
2023/07/09 00:06:17;;;;;;;9.97;9.20;;;;;;;18.81;62.72;93269.16;5069100;28;20223;-73
2023/07/09 00:08:46;;;;;;;11.30;10.27;;;;;;;18.77;62.61;93261.06;5069628;28;20813;-72
2023/07/09 00:11:12;;;;;;;10.60;9.80;;;;;;;18.86;62.60;93263.72;5057788;28;20229;-72
2023/07/09 00:13:37;;;;;;;10.33;9.30;;;;;;;18.86;62.01;93258.41;5069585;28;20227;-72
2023/07/09 00:16:12;;;;;;;10.07;9.07;;;;;;;18.90;61.93;93261.97;5057778;28;20222;-72
2023/07/09 00:18:38;;;;;;;9.50;8.80;;;;;;;18.72;62.06;93241.94;5069491;28;20189;-72
2023/07/09 00:21:03;;;;;;;9.60;8.90;;;;;;;18.71;62.47;93250.94;5081062;28;20253;-73
2023/07/09 00:23:29;;;;;;;10.07;9.07;;;;;;;18.78;62.21;93254.69;5073037;28;20201;-73
2023/07/09 00:25:55;;;;;;;10.03;9.23;;;;;;;18.79;62.06;93258.09;5069263;28;20227;-73
2023/07/09 00:28:20;;;;;;;9.77;9.17;;;;;;;18.73;61.87;93248.75;5071354;28;20219;-73
2023/07/09 00:30:47;;;;;;;10.60;9.60;;;;;;;18.85;62.18;93257.63;5061882;28;20306;-72
2023/07/09 00:33:18;;;;;;;10.67;9.57;;;;;;;18.86;61.55;93248.59;5073402;28;20206;-73
2023/07/09 00:35:46;;;;;;;9.97;9.07;;;;;;;18.81;61.45;93255.91;5073409;28;20237;-72
2023/07/09 00:38:22;;;;;;;10.33;9.63;;;;;;;18.79;61.27;93253.59;5072910;28;20169;-73
2023/07/09 00:41:06;;;;;;;10.37;9.40;;;;;;;18.81;61.17;93250.63;5072959;28;20233;-72
2023/07/09 00:43:36;;;;;;;10.70;9.90;;;;;;;18.80;61.81;93239.25;5073412;28;20206;-72
2023/07/09 00:46:14;;;;;;;10.47;9.87;;;;;;;18.85;62.33;93246.25;5075655;28;20226;-72
2023/07/09 00:48:40;;;;;;;9.77;9.07;;;;;;;18.83;61.36;93248.47;5072961;28;20187;-73
2023/07/09 00:51:11;;;;;;;9.67;8.80;;;;;;;18.86;60.78;93237.25;5072391;28;20248;-72
2023/07/09 00:53:39;;;;;;;9.47;8.77;;;;;;;18.88;62.11;93242.97;5072843;28;20193;-72
2023/07/09 00:56:11;;;;;;;9.67;8.87;;;;;;;18.83;61.39;93232.59;5072671;28;20229;-71
2023/07/09 00:58:38;;;;;;;10.80;10.00;;;;;;;18.88;61.12;93245.63;5073099;28;20199;-73
2023/07/09 01:01:11;;;;;;;9.87;8.70;;;;;;;18.87;60.69;93238.78;5072555;28;20241;-72
2023/07/09 01:03:47;;;;;;;10.43;9.77;;;;;;;18.90;60.81;93233.66;5071996;28;20206;-72
2023/07/09 01:06:15;;;;;;;9.77;9.07;;;;;;;18.85;60.48;93239.09;5072706;28;20230;-72
2023/07/09 01:08:43;;;;;;;8.80;8.13;;;;;;;18.81;61.57;93232.91;5072825;28;20195;-72
2023/07/09 01:11:21;;;;;;;9.83;9.13;;;;;;;18.80;61.15;93241.16;5071987;28;20286;-72
2023/07/09 01:13:53;;;;;;;9.97;9.27;;;;;;;18.70;61.07;93234.31;5072535;28;20229;-73
2023/07/09 01:16:23;;;;;;;9.80;9.23;;;;;;;18.60;61.02;93216.09;5072288;28;21022;-73
2023/07/09 01:18:49;;;;;;;10.00;9.37;;;;;;;18.71;60.51;93229.78;5072448;28;20179;-73
2023/07/09 01:21:15;;;;;;;9.30;8.80;;;;;;;18.68;61.02;93230.41;5078323;28;20241;-72
2023/07/09 01:23:49;;;;;;;10.47;9.77;;;;;;;18.60;61.16;93224.03;5072565;28;20220;-73
2023/07/09 01:26:18;;;;;;;10.10;9.40;;;;;;;18.58;61.69;93217.50;5072248;28;20282;-73
2023/07/09 01:28:44;;;;;;;10.70;9.90;;;;;;;18.56;62.16;93217.81;5072511;28;20186;-73
2023/07/09 01:31:12;;;;;;;10.30;9.70;;;;;;;18.45;62.11;93221.88;5072009;28;20302;-73
2023/07/09 01:33:41;;;;;;;10.30;9.43;;;;;;;18.46;61.72;93215.47;5072184;28;20187;-73
2023/07/09 01:36:08;;;;;;;10.73;9.83;;;;;;;18.45;62.87;93206.00;5071929;28;20225;-73
2023/07/09 01:38:34;;;;;;;13.67;9.87;;;;;;;18.34;61.75;93215.31;5072308;28;20204;-72
2023/07/09 01:41:00;;;;;;;9.80;9.00;;;;;;;18.41;61.88;93209.59;5071628;28;20221;-72
2023/07/09 01:43:27;;;;;;;9.53;8.93;;;;;;;18.34;61.87;93222.44;5071973;28;20191;-73
2023/07/09 01:45:52;;;;;;;9.93;9.03;;;;;;;18.33;61.80;93205.03;5075354;28;20225;-73
2023/07/09 01:48:20;;;;;;;9.70;8.80;;;;;;;18.29;61.89;93212.81;5071953;28;20183;-72
2023/07/09 01:50:49;;;;;;;10.10;9.40;;;;;;;18.32;63.04;93227.28;5071403;28;20218;-72
2023/07/09 01:53:17;;;;;;;10.37;9.67;;;;;;;17.91;62.27;93180.13;5070819;28;20178;-72
2023/07/09 01:55:44;;;;;;;9.70;9.00;;;;;;;18.31;61.72;93228.34;5071705;28;20242;-72
2023/07/09 01:58:10;;;;;;;10.47;9.60;;;;;;;18.38;61.27;93226.81;5054493;28;20179;-72
2023/07/09 02:00:36;;;;;;;9.93;9.40;;;;;;;18.43;60.84;93229.31;5071649;28;20225;-72
2023/07/09 02:03:03;;;;;;;10.07;9.37;;;;;;;18.43;61.09;93228.53;5071543;28;20174;-72
2023/07/09 02:05:31;;;;;;;9.93;9.23;;;;;;;18.42;60.77;93216.41;5071268;28;20225;-73
2023/07/09 02:07:57;;;;;;;10.00;9.30;;;;;;;18.43;61.37;93228.53;5071324;28;20198;-74
2023/07/09 02:10:23;;;;;;;10.07;9.40;;;;;;;18.35;62.58;93226.66;5071302;28;20301;-72
2023/07/09 02:12:48;;;;;;;9.60;9.00;;;;;;;18.25;62.29;93216.38;5071371;28;20222;-72
2023/07/09 02:15:14;;;;;;;10.17;9.37;;;;;;;18.43;61.43;93231.19;5070964;28;20229;-73
2023/07/09 02:17:40;;;;;;;10.03;9.27;;;;;;;18.30;62.01;93229.44;5071390;28;20233;-73
2023/07/09 02:20:07;;;;;;;16.53;9.23;;;;;;;18.33;62.06;93229.63;5074122;28;20218;-73
2023/07/09 02:22:37;;;;;;;9.67;9.00;;;;;;;18.28;62.16;93234.25;5073948;28;20696;-73
2023/07/09 02:25:03;;;;;;;9.47;8.63;;;;;;;18.26;63.47;93231.94;5071120;28;20727;-73
2023/07/09 02:27:29;;;;;;;10.90;8.73;;;;;;;18.31;62.73;93236.28;5071583;28;20201;-73
2023/07/09 02:29:54;;;;;;;10.80;8.77;;;;;;;18.22;62.97;93238.16;5070695;28;20246;-72
2023/07/09 02:32:28;;;;;;;10.13;9.37;;;;;;;18.05;62.95;93231.00;5071313;28;20232;-73
2023/07/09 02:34:54;;;;;;;9.57;8.63;;;;;;;17.98;65.96;93235.94;5070854;28;20235;-73
2023/07/09 02:37:22;;;;;;;9.50;8.90;;;;;;;17.98;66.73;93243.84;5070933;28;20237;-73
2023/07/09 02:39:48;;;;;;;9.87;9.00;;;;;;;17.79;66.89;93242.59;5070812;28;20235;-72
2023/07/09 02:42:15;;;;;;;11.10;10.27;;;;;;;17.68;68.32;93251.88;5070819;28;20270;-72
2023/07/09 02:44:41;;;;;;;9.07;8.47;;;;;;;17.71;68.00;93251.25;5056610;28;20241;-72
2023/07/09 02:47:07;;;;;;;8.97;8.30;;;;;;;17.62;69.34;93239.88;5071549;28;20181;-73
2023/07/09 02:49:33;;;;;;;9.53;8.83;;;;;;;17.59;70.31;93251.81;5052964;28;20243;-72
2023/07/09 02:51:59;;;;;;;10.40;9.67;;;;;;;17.46;66.36;93248.19;5069930;28;20182;-72
2023/07/09 02:54:25;;;;;;;10.87;10.07;;;;;;;17.46;69.34;93258.75;5070182;28;20271;-73
2023/07/09 02:56:50;;;;;;;10.60;9.87;;;;;;;17.18;72.32;93256.59;5071071;28;20201;-73
2023/07/09 02:59:15;;;;;;;9.20;8.70;;;;;;;17.15;71.85;93241.38;5070543;28;20786;-73
2023/07/09 03:01:41;;;;;;;10.80;9.97;;;;;;;17.23;68.84;93254.59;5070562;28;21055;-72
2023/07/09 03:04:08;;;;;;;9.70;9.00;;;;;;;17.35;70.87;93278.56;5070639;28;20723;-72
2023/07/09 03:06:35;;;;;;;9.60;8.93;;;;;;;17.26;71.65;93269.06;5069961;28;20233;-73
2023/07/09 03:09:01;;;;;;;10.43;9.73;;;;;;;17.36;69.22;93276.69;5070434;28;20199;-73
2023/07/09 03:11:29;;;;;;;10.90;9.97;;;;;;;17.44;70.42;93278.63;5069995;28;20211;-73
2023/07/09 03:13:55;;;;;;;10.93;10.23;;;;;;;17.48;70.78;93261.88;5070161;28;20252;-73
2023/07/09 03:16:21;;;;;;;10.67;9.80;;;;;;;17.62;70.39;93266.28;5069661;28;20237;-73
2023/07/09 03:18:46;;;;;;;10.37;9.67;;;;;;;17.82;70.12;93265.75;5070603;28;20186;-73
2023/07/09 03:21:11;;;;;;;9.57;9.07;;;;;;;17.89;68.72;93260.78;5076902;28;20238;-73
2023/07/09 03:23:37;;;;;;;10.63;9.83;;;;;;;17.87;65.96;93276.16;5069950;28;20469;-73
2023/07/09 03:26:03;;;;;;;9.53;8.93;;;;;;;18.03;65.57;93264.06;5069778;28;20249;-72
2023/07/09 03:28:31;;;;;;;9.27;8.67;;;;;;;18.37;64.51;93277.34;5070476;28;20195;-73
2023/07/09 03:30:57;;;;;;;10.17;9.53;;;;;;;18.58;63.66;93273.06;5069060;28;20212;-71
2023/07/09 03:33:23;;;;;;;10.03;9.07;;;;;;;18.65;63.34;93279.44;5070246;28;20842;-73
2023/07/09 03:35:49;;;;;;;9.00;8.40;;;;;;;18.76;62.63;93279.88;5069397;28;20233;-73
2023/07/09 03:38:14;;;;;;;10.67;9.67;;;;;;;18.87;62.16;93278.47;5069808;28;20187;-73
2023/07/09 03:40:40;;;;;;;10.17;9.37;;;;;;;19.03;62.97;93279.56;5069172;28;20217;-73
2023/07/09 03:43:06;;;;;;;10.10;9.50;;;;;;;19.16;62.58;93282.03;5069827;28;20290;-73
2023/07/09 03:45:33;;;;;;;10.30;9.43;;;;;;;19.13;62.20;93282.66;5069778;28;20245;-72
2023/07/09 03:47:58;;;;;;;10.20;9.50;;;;;;;19.30;61.32;93276.56;5069876;28;20191;-72
2023/07/09 03:50:24;;;;;;;10.27;9.43;;;;;;;19.26;61.48;93272.19;5068804;28;20226;-72
2023/07/09 03:52:49;;;;;;;10.13;8.40;;;;;;;19.44;61.09;93287.75;5070295;28;20198;-72
2023/07/09 03:55:15;;;;;;;9.50;8.73;;;;;;;19.34;61.46;93290.75;5069071;28;20234;-73
2023/07/09 03:57:40;;;;;;;9.70;9.10;;;;;;;19.49;61.65;93292.88;5070132;28;20246;-73
2023/07/09 04:00:10;;;;;;;9.73;8.90;;;;;;;19.43;62.15;93296.81;5069141;28;20291;-72
2023/07/09 04:02:36;;;;;;;9.30;8.60;;;;;;;19.60;61.17;93299.41;5070105;28;20183;-72
2023/07/09 04:05:01;;;;;;;11.80;9.60;;;;;;;19.61;59.71;93290.34;5069099;28;20237;-73
2023/07/09 04:07:26;;;;;;;9.33;8.73;;;;;;;19.73;60.55;93277.22;5052918;28;20195;-73
2023/07/09 04:09:52;;;;;;;10.03;9.13;;;;;;;19.80;60.10;93304.00;5068913;28;20746;-72
2023/07/09 04:12:17;;;;;;;10.37;9.13;;;;;;;19.66;59.67;93298.13;5069750;28;20231;-73
2023/07/09 04:14:43;;;;;;;8.70;8.20;;;;;;;19.69;60.96;93300.13;5069056;28;20231;-73
2023/07/09 04:17:08;;;;;;;10.13;9.37;;;;;;;19.79;60.42;93305.09;5069438;28;20219;-72
2023/07/09 04:19:33;;;;;;;9.93;9.07;;;;;;;19.78;59.99;93310.72;5068833;28;20224;-73
2023/07/09 04:21:59;;;;;;;9.83;8.90;;;;;;;19.87;60.79;93317.56;5070310;28;20254;-73
2023/07/09 04:24:24;;;;;;;9.63;8.93;;;;;;;19.93;59.79;93310.19;5068859;28;20198;-73
2023/07/09 04:26:49;;;;;;;9.77;8.83;;;;;;;19.64;59.67;93304.84;5069684;28;20192;-72
2023/07/09 04:29:15;;;;;;;9.93;9.00;;;;;;;19.84;59.13;93304.16;5068997;28;20222;-73
2023/07/09 04:31:41;;;;;;;9.33;8.43;;;;;;;20.03;59.63;93315.91;5069675;28;20199;-73
2023/07/09 04:34:07;;;;;;;10.00;9.00;;;;;;;19.93;60.28;93318.13;5069184;28;20196;-72
2023/07/09 04:36:32;;;;;;;8.90;8.30;;;;;;;20.03;59.82;93305.28;5068667;28;20243;-73
2023/07/09 04:38:58;;;;;;;9.50;8.77;;;;;;;20.93;57.53;93324.28;5069062;28;20214;-73
2023/07/09 04:41:24;;;;;;;10.50;9.13;;;;;;;21.37;54.08;93323.63;5069192;28;20243;-73
2023/07/09 04:43:49;;;;;;;9.53;8.93;;;;;;;20.48;56.39;93314.28;5069072;28;20172;-72
2023/07/09 04:46:14;;;;;;;9.40;8.80;;;;;;;20.99;56.48;93329.09;5072494;28;20259;-73
2023/07/09 04:48:40;;;;;;;10.05;9.10;;;;;;;21.34;54.85;93322.38;5069267;28;20196;-73
2023/07/09 04:51:06;;;;;;;8.50;8.00;;;;;;;21.56;54.62;93331.84;5052583;28;20256;-73
2023/07/09 04:53:31;;;;;;;10.07;9.38;;;;;;;20.57;56.58;93315.03;5068738;28;20199;-73
2023/07/09 04:55:57;;;;;;;8.63;7.97;;;;;;;20.65;56.95;93327.44;5067716;28;20257;-72
2023/07/09 04:58:22;;;;;;;9.38;8.68;;;;;;;20.54;57.40;93328.16;5069418;28;20192;-73
2023/07/09 05:00:48;;;;;;;9.65;8.95;;;;;;;20.57;57.97;93319.56;5051344;28;20232;-72
2023/07/09 05:03:14;;;;;;;10.10;8.95;;;;;;;20.62;58.44;93325.44;5051330;28;20181;-73
2023/07/09 05:05:46;;;;;;;9.77;8.90;;;;;;;20.73;59.69;93327.72;5068722;28;20232;-73
2023/07/09 05:08:13;;;;;;;9.13;8.60;;;;;;;21.01;60.20;93332.22;5084437;28;20192;-73
2023/07/09 05:10:49;;;;;;;10.30;9.40;;;;;;;21.18;59.76;93342.72;5068793;28;20259;-73
2023/07/09 05:13:15;;;;;;;8.90;8.38;;;;;;;21.56;59.33;93345.16;5067592;28;20226;-72
2023/07/09 05:15:44;;;;;;;12.93;9.55;;;;;;;21.85;57.35;93339.72;5070210;28;20228;-74
2023/07/09 05:18:10;;;;;;;9.52;8.73;;;;;;;22.49;56.25;93343.28;5072538;28;20192;-72
2023/07/09 05:20:36;;;;;;;9.55;8.90;;;;;;;22.72;54.44;93347.09;5072912;28;20219;-73
2023/07/09 05:23:01;;;;;;;9.82;8.98;;;;;;;22.69;55.14;93350.44;5072309;28;20650;-73
2023/07/09 05:25:27;;;;;;;10.05;9.00;;;;;;;21.83;55.95;93336.63;5054335;28;20239;-73
2023/07/09 05:27:52;;;;;;;8.70;7.90;;;;;;;22.05;56.80;93344.94;5059827;28;20230;-73
2023/07/09 05:30:19;;;;;;;10.20;9.50;;;;;;;21.99;55.97;93346.28;5071945;28;20226;-73
2023/07/09 05:32:45;;;;;;;9.65;8.30;;;;;;;22.15;55.12;93346.41;5072532;28;20184;-73
2023/07/09 05:35:11;;;;;;;10.50;9.52;;;;;;;22.30;53.89;93345.75;5071478;28;20228;-73
2023/07/09 05:37:37;;;;;;;9.25;8.68;;;;;;;22.15;54.53;93343.75;5072432;28;20225;-73
2023/07/09 05:40:05;;;;;;;11.13;10.07;;;;;;;22.67;53.32;93346.53;5071803;28;20239;-73
2023/07/09 05:42:31;;;;;;;9.95;9.27;;;;;;;25.13;44.72;93337.72;5072810;28;20223;-73
2023/07/09 05:44:56;;;;;;;11.00;8.55;;;;;;;29.03;38.36;93348.56;5076110;28;20242;-73
2023/07/09 05:47:21;;;;;;;8.98;8.27;;;;;;;31.41;32.94;93356.38;5072348;28;20197;-74
2023/07/09 05:49:49;;;;;;;8.65;8.02;;;;;;;31.46;31.86;93358.69;5071597;28;20284;-73
2023/07/09 05:52:15;;;;;;;8.60;8.00;;;;;;;31.55;31.56;93366.41;5071834;28;20186;-73
2023/07/09 05:54:40;;;;;;;8.60;7.88;;;;;;;32.38;30.74;93348.25;5071484;28;20231;-73
2023/07/09 05:57:06;;;;;;;9.30;8.27;;;;;;;33.35;29.21;93362.16;5071882;28;20209;-73
2023/07/09 05:59:31;;;;;;;8.25;7.75;;;;;;;34.18;28.80;93364.31;5071606;28;20241;-74
2023/07/09 06:01:57;;;;;;;8.13;7.50;;;;;;;35.23;26.57;93368.16;5088008;28;20193;-73
2023/07/09 06:04:22;;;;;;;8.05;7.32;;;;;;;34.15;27.88;93359.72;5071307;28;20193;-73
2023/07/09 06:06:47;;;;;;;7.38;6.82;;;;;;;34.80;26.96;93371.97;5071781;28;20177;-73
2023/07/09 06:09:13;;;;;;;8.07;7.57;;;;;;;34.18;27.40;93367.78;5071346;28;20186;-74
2023/07/09 06:11:38;;;;;;;9.13;7.93;;;;;;;33.00;29.34;93364.44;5071744;28;20174;-74
2023/07/09 06:14:03;;;;;;;8.30;7.60;;;;;;;33.49;28.71;93358.56;5071327;28;20232;-74
2023/07/09 06:16:29;;;;;;;8.00;7.47;;;;;;;34.47;27.18;93354.63;5070929;28;20225;-73
2023/07/09 06:18:54;;;;;;;7.40;6.90;;;;;;;33.75;26.99;93347.03;5067830;28;20185;-74
2023/07/09 06:21:20;;;;;;;8.10;6.93;;;;;;;34.84;26.15;93359.88;5073096;28;20804;-73
2023/07/09 06:23:46;;;;;;;7.53;6.93;;;;;;;31.48;29.95;93353.69;5071492;28;20185;-73
2023/07/09 06:26:12;;;;;;;8.85;7.40;;;;;;;32.31;29.71;93348.28;5068737;28;20221;-74
2023/07/09 06:28:37;;;;;;;9.30;8.30;;;;;;;32.52;29.14;93337.34;5071337;28;20243;-74
2023/07/09 06:31:03;;;;;;;8.30;7.72;;;;;;;33.73;27.85;93350.13;5070903;28;20294;-74
2023/07/09 06:33:29;;;;;;;7.53;7.13;;;;;;;33.32;28.44;93345.94;5071259;28;20196;-74
2023/07/09 06:36:00;;;;;;;7.88;7.28;;;;;;;33.49;28.04;93353.91;5069640;28;20225;-74
2023/07/09 06:38:27;;;;;;;8.93;8.00;;;;;;;33.24;28.11;93352.59;5066363;28;20182;-74
2023/07/09 06:40:52;;;;;;;7.75;7.00;;;;;;;34.01;27.75;93359.91;5070382;28;20224;-74
2023/07/09 06:43:18;;;;;;;9.55;8.50;;;;;;;35.45;25.87;93368.56;5071131;28;20193;-74
2023/07/09 06:46:00;;;;;;;7.72;6.97;;;;;;;35.73;25.16;93375.41;5074423;28;20228;-74
2023/07/09 06:48:28;;;;;;;6.88;6.38;;;;;;;34.78;25.54;93375.09;5081620;28;20212;-74
2023/07/09 06:50:55;;;;;;;8.57;7.85;;;;;;;33.74;27.51;93367.16;5052640;28;20213;-74
2023/07/09 06:53:21;;;;;;;8.85;8.25;;;;;;;30.79;30.96;93364.19;5070764;28;20172;-74
2023/07/09 06:55:48;;;;;;;8.50;7.68;;;;;;;25.73;41.21;93331.66;5070655;28;20236;-73
2023/07/09 06:58:16;;;;;;;10.32;9.48;;;;;;;24.64;46.43;93334.72;5070861;28;20185;-74
2023/07/09 07:00:41;;;;;;;10.55;9.00;;;;;;;24.94;45.18;93343.03;5070507;28;20226;-73
2023/07/09 07:03:06;;;;;;;9.52;8.88;;;;;;;24.33;48.45;93328.66;5070561;28;20267;-73
2023/07/09 07:05:32;;;;;;;9.55;8.75;;;;;;;23.70;49.56;93333.91;5070312;28;20221;-73
2023/07/09 07:07:58;;;;;;;9.82;9.20;;;;;;;23.67;49.59;93339.91;5070455;28;20257;-74
2023/07/09 07:10:23;;;;;;;10.07;9.20;;;;;;;22.91;51.65;93322.53;5070065;28;20218;-73
2023/07/09 07:12:49;;;;;;;10.18;9.30;;;;;;;23.18;52.04;93327.88;5070264;28;20228;-73
2023/07/09 07:15:17;;;;;;;9.75;8.70;;;;;;;23.48;51.30;93334.47;5070010;28;20229;-73
2023/07/09 07:17:43;;;;;;;9.77;9.05;;;;;;;23.00;51.73;93331.16;5070165;28;20243;-73
2023/07/09 07:20:10;;;;;;;10.45;9.57;;;;;;;23.20;51.96;93328.34;5073436;28;20318;-73
2023/07/09 07:22:36;;;;;;;10.18;9.38;;;;;;;23.54;51.59;93327.78;5072090;28;20183;-73
2023/07/09 07:25:03;;;;;;;10.60;9.90;;;;;;;23.65;52.07;93322.72;5069801;28;20258;-73
2023/07/09 07:27:28;;;;;;;10.30;9.60;;;;;;;23.56;53.47;93322.84;5070408;28;20231;-73
2023/07/09 07:29:54;;;;;;;9.70;9.10;;;;;;;23.32;51.95;93322.97;5069691;28;20250;-73
2023/07/09 07:32:20;;;;;;;10.18;9.50;;;;;;;23.22;51.90;93323.44;5070143;28;20244;-73
2023/07/09 07:34:47;;;;;;;9.95;9.10;;;;;;;23.14;51.09;93287.06;5070009;28;20228;-74
2023/07/09 07:37:12;;;;;;;9.68;9.13;;;;;;;23.31;53.33;93321.44;5069447;28;20212;-73
2023/07/09 07:39:38;;;;;;;9.65;9.05;;;;;;;23.81;50.81;93318.19;5069514;28;20235;-73
2023/07/09 07:42:04;;;;;;;10.77;9.80;;;;;;;23.48;53.25;93299.81;5069500;28;20184;-73
2023/07/09 07:44:29;;;;;;;10.75;9.95;;;;;;;23.72;51.43;93305.00;5071544;28;20196;-73
2023/07/09 07:46:54;;;;;;;10.13;9.32;;;;;;;23.67;51.42;93315.16;5061587;28;20177;-73
2023/07/09 07:49:20;;;;;;;10.10;9.13;;;;;;;23.91;51.37;93312.34;5061658;28;20230;-73
2023/07/09 07:51:45;;;;;;;10.98;9.98;;;;;;;23.46;52.22;93309.25;5067457;28;20183;-73
2023/07/09 07:54:12;;;;;;;9.07;8.43;;;;;;;24.11;49.80;93318.59;5069345;28;20263;-73
2023/07/09 07:56:37;;;;;;;9.88;9.23;;;;;;;24.17;51.17;93314.53;5032218;28;20215;-73
2023/07/09 07:59:03;;;;;;;10.25;9.27;;;;;;;24.15;49.86;93319.44;5032809;28;20195;-73
2023/07/09 08:01:28;;;;;;;9.85;9.25;;;;;;;24.11;50.87;93319.34;5049263;28;20248;-73
2023/07/09 08:03:54;;;;;;;9.15;8.55;;;;;;;23.80;51.51;93308.63;5049884;28;20218;-73
2023/07/09 08:06:20;;;;;;;11.13;9.43;;;;;;;23.91;51.58;93306.25;5031338;28;20217;-73
2023/07/09 08:08:45;;;;;;;10.55;9.75;;;;;;;23.75;50.97;93308.91;5049630;28;20224;-74
2023/07/09 08:11:10;;;;;;;10.77;9.98;;;;;;;23.68;54.13;93311.38;5048267;28;20216;-73
2023/07/09 08:13:38;;;;;;;9.25;8.57;;;;;;;24.22;49.69;93306.28;5049523;28;20228;-73
2023/07/09 08:16:04;;;;;;;10.45;9.75;;;;;;;23.68;52.81;93303.38;5036904;28;20274;-73
2023/07/09 08:18:30;;;;;;;9.77;8.98;;;;;;;23.87;52.52;93305.38;5049734;28;20194;-73
2023/07/09 08:20:55;;;;;;;10.48;9.77;;;;;;;23.97;52.32;93305.66;5055868;28;20224;-73
2023/07/09 08:23:20;;;;;;;10.40;9.63;;;;;;;24.32;50.46;93300.41;5049620;28;20721;-71
2023/07/09 08:26:00;;;;;;;10.63;9.93;;;;;;;24.21;52.94;93299.38;5048859;28;20234;-73
2023/07/09 08:28:26;;;;;;;9.55;8.85;;;;;;;24.27;52.12;93297.97;5049934;28;20253;-73
2023/07/09 08:30:52;;;;;;;10.70;9.90;;;;;;;24.09;49.84;93291.47;5048710;28;20920;-73
2023/07/09 08:33:18;;;;;;;11.00;9.93;;;;;;;24.03;51.16;93290.19;5049738;28;20188;-73
2023/07/09 08:35:44;;;;;;;9.50;8.80;;;;;;;23.52;52.18;93282.00;5048913;28;20248;-73
2023/07/09 08:38:09;;;;;;;10.40;9.57;;;;;;;23.69;51.84;93300.34;5049019;28;20192;-73
2023/07/09 08:40:41;;;;;;;9.88;9.10;;;;;;;24.07;52.63;93296.38;5048840;28;20225;-72
2023/07/09 08:43:22;;;;;;;10.52;9.82;;;;;;;24.12;52.39;93294.22;5049387;28;20211;-73
2023/07/09 08:45:56;;;;;;;10.40;9.60;;;;;;;24.04;53.43;93299.72;5053525;28;20313;-73
2023/07/09 08:48:33;;;;;;;11.18;9.73;;;;;;;24.26;53.62;93296.44;5049296;28;20260;-73
2023/07/09 08:51:15;;;;;;;9.98;9.35;;;;;;;24.33;51.57;93291.28;5051186;28;20244;-73
2023/07/09 08:53:55;;;;;;;10.63;9.80;;;;;;;24.21;52.01;93289.47;5052194;28;20185;-73
2023/07/09 08:56:22;;;;;;;10.18;9.10;;;;;;;23.97;53.19;93286.97;5052303;28;20223;-73
2023/07/09 08:58:50;;;;;;;10.85;9.98;;;;;;;24.29;51.34;93296.53;5053664;28;20245;-73
2023/07/09 09:01:21;;;;;;;10.60;9.52;;;;;;;24.06;52.94;93292.16;5052488;28;20283;-73
2023/07/09 09:03:54;;;;;;;10.55;9.75;;;;;;;24.08;50.91;93296.00;5053342;28;20193;-73
2023/07/09 09:06:25;;;;;;;11.07;10.00;;;;;;;24.12;52.11;93291.56;5051985;28;20235;-73
2023/07/09 09:09:20;;;;;;;10.35;9.57;;;;;;;24.35;52.49;93295.16;5053101;28;20247;-73
2023/07/09 09:11:48;;;;;;;9.70;9.10;;;;;;;24.56;51.17;93300.19;5039771;28;20202;-73
2023/07/09 09:14:24;;;;;;;10.55;9.57;;;;;;;24.28;52.58;93297.63;5051947;28;20210;-73
2023/07/09 09:16:51;;;;;;;11.20;10.32;;;;;;;24.42;52.35;93302.53;5052737;28;20204;-73
2023/07/09 09:19:34;;;;;;;10.70;9.63;;;;;;;24.18;53.21;93300.06;5051995;28;20201;-73
2023/07/09 09:22:04;;;;;;;10.18;9.48;;;;;;;23.89;51.58;93293.25;5052557;28;20177;-73
2023/07/09 09:24:31;;;;;;;10.13;9.30;;;;;;;24.21;52.33;93288.69;5051971;28;20194;-73
2023/07/09 09:26:59;;;;;;;10.38;9.45;;;;;;;24.60;52.16;93291.16;5052688;28;20180;-73
2023/07/09 09:29:25;;;;;;;9.98;9.18;;;;;;;24.36;50.56;93299.34;5052003;28;20196;-74
2023/07/09 09:31:57;;;;;;;10.50;9.63;;;;;;;24.40;53.54;93297.56;5052610;28;20184;-73
2023/07/09 09:34:28;;;;;;;10.60;9.73;;;;;;;24.27;54.12;93290.75;5081868;28;20950;-73
2023/07/09 09:36:58;;;;;;;11.13;10.15;;;;;;;24.69;55.19;93297.09;5052020;28;20211;-73
2023/07/09 09:39:25;;;;;;;9.60;8.90;;;;;;;24.23;50.21;93294.47;5051855;28;20188;-73
2023/07/09 09:41:56;;;;;;;10.20;9.40;;;;;;;24.63;51.22;93293.13;5052530;28;20187;-73
2023/07/09 09:44:27;;;;;;;11.10;10.13;;;;;;;24.62;50.69;93283.53;5052725;28;20192;-73
2023/07/09 09:46:55;;;;;;;10.18;9.40;;;;;;;24.33;51.25;93289.38;5054910;28;20205;-73
2023/07/09 09:49:20;;;;;;;14.85;10.50;;;;;;;24.67;52.89;93274.53;5051942;28;20207;-73
2023/07/09 09:51:47;;;;;;;10.73;9.93;;;;;;;24.65;51.90;93277.53;5051843;28;20180;-73
2023/07/09 09:54:19;;;;;;;11.07;10.18;;;;;;;24.65;52.58;93282.09;5051863;28;20208;-73
2023/07/09 09:56:47;;;;;;;10.18;9.32;;;;;;;24.54;51.91;93260.50;5083991;28;20217;-73
2023/07/09 09:59:32;;;;;;;10.43;9.52;;;;;;;24.61;50.55;93275.88;5051300;28;20196;-73
2023/07/09 10:02:02;;;;;;;10.40;9.68;;;;;;;24.54;52.51;93275.72;5039956;28;21044;-73
2023/07/09 10:04:28;;;;;;;10.38;9.32;;;;;;;24.57;50.63;93277.72;5051321;28;20200;-73
2023/07/09 10:07:05;;;;;;;10.35;9.55;;;;;;;24.87;51.20;93279.53;5051955;28;20189;-73
2023/07/09 10:09:51;;;;;;;10.85;9.85;;;;;;;24.75;50.66;93276.22;5051278;28;20320;-73
2023/07/09 10:12:40;;;;;;;10.57;9.50;;;;;;;24.76;50.41;93269.75;5051509;28;21731;-73
2023/07/09 10:15:08;;;;;;;11.15;10.07;;;;;;;24.85;52.02;93268.44;5051084;28;20266;-73
2023/07/09 10:17:44;;;;;;;10.13;9.23;;;;;;;24.73;51.78;93273.13;5051267;28;20291;-73
2023/07/09 10:20:21;;;;;;;11.00;10.13;;;;;;;24.79;50.88;93269.06;5055154;28;20316;-73
2023/07/09 10:23:17;;;;;;;10.07;9.30;;;;;;;24.56;49.44;93268.91;5051812;28;20181;-73
2023/07/09 10:25:45;;;;;;;10.55;9.70;;;;;;;24.49;51.75;93262.66;5051131;28;20240;-73
2023/07/09 10:28:11;;;;;;;10.38;9.52;;;;;;;;;;5051876;28;20193;-73
2023/07/09 10:30:49;;;;;;;10.25;9.45;;;;;;;24.65;49.52;93266.06;5050835;28;20228;-73
2023/07/09 10:33:26;;;;;;;10.02;9.23;;;;;;;24.92;50.12;93252.53;5051401;28;20192;-73
2023/07/09 10:36:17;;;;;;;10.10;9.30;;;;;;;25.03;51.59;93260.75;5049483;28;20232;-73
2023/07/09 10:38:55;;;;;;;10.18;9.38;;;;;;;24.76;48.89;93264.41;5051223;28;20181;-73
2023/07/09 10:41:21;;;;;;;9.60;8.93;;;;;;;25.01;46.72;93247.00;5083413;28;20263;-73
2023/07/09 10:43:54;;;;;;;9.85;9.00;;;;;;;25.15;47.44;93266.00;5051005;28;20189;-73
2023/07/09 10:46:24;;;;;;;10.45;9.68;;;;;;;24.91;48.18;93259.03;5054213;28;20231;-74
2023/07/09 10:48:52;;;;;;;10.27;9.38;;;;;;;24.98;49.04;93251.13;5051270;28;20176;-73
2023/07/09 10:51:24;;;;;;;9.98;9.07;;;;;;;25.02;47.99;93257.34;5050147;28;20214;-73
2023/07/09 10:54:04;;;;;;;9.57;8.88;;;;;;;24.96;47.54;93256.06;5038868;28;20196;-73
2023/07/09 10:56:35;;;;;;;10.00;9.30;;;;;;;24.87;47.08;93250.13;5050486;28;20309;-73
2023/07/09 10:59:22;;;;;;;9.90;9.10;;;;;;;25.13;47.54;93257.53;5051118;28;20262;-72
2023/07/09 11:02:06;;;;;;;9.40;8.50;;;;;;;25.08;48.36;93263.94;5070471;28;20571;-73
2023/07/09 11:04:42;;;;;;;9.30;8.70;;;;;;;25.09;47.38;93256.72;5065975;28;20231;-73
2023/07/09 11:07:14;;;;;;;9.68;8.82;;;;;;;25.00;47.59;93240.09;5060481;28;20197;-73
2023/07/09 11:09:46;;;;;;;9.07;8.30;;;;;;;24.71;46.13;93249.44;5052754;28;20224;-73
2023/07/09 11:12:27;;;;;;;9.60;8.90;;;;;;;24.94;47.35;93249.50;5070217;28;20220;-73
2023/07/09 11:14:55;;;;;;;9.65;8.90;;;;;;;24.94;44.71;93254.88;5069869;28;20247;-73
2023/07/09 11:17:22;;;;;;;9.60;8.73;;;;;;;24.74;45.11;93239.94;5070747;28;20213;-73
2023/07/09 11:19:53;;;;;;;8.70;8.10;;;;;;;25.03;45.71;93252.75;5079178;28;20232;-73
2023/07/09 11:22:41;;;;;;;9.25;8.55;;;;;;;25.11;44.30;93251.75;5074438;28;20185;-73
2023/07/09 11:25:13;;;;;;;9.63;9.02;;;;;;;25.13;44.67;93261.00;5062040;28;20328;-73
2023/07/09 11:28:03;;;;;;;8.95;8.35;;;;;;;25.23;43.89;93263.09;5069746;28;20193;-73
2023/07/09 11:30:29;;;;;;;9.73;8.93;;;;;;;25.32;44.24;93252.19;5070310;28;20255;-73
2023/07/09 11:33:02;;;;;;;9.07;8.43;;;;;;;25.36;43.82;93252.25;5070404;28;20476;-73
2023/07/09 11:35:29;;;;;;;9.95;9.25;;;;;;;25.38;44.32;93255.38;5051981;28;20247;-73